createdAt,value
2022-09-14T00:00:13.609Z,1.10
2022-09-14T00:05:52.751Z,1.33
2022-09-14T00:08:41.359Z,1.40
2022-09-14T00:14:18.997Z,1.20
2022-09-14T00:19:55.872Z,1.20
2022-09-14T00:22:44.560Z,1.30
2022-09-14T00:28:15.372Z,1.20
2022-09-14T00:33:54.866Z,1.40
2022-09-14T00:39:30.158Z,1.47
2022-09-14T00:45:15.745Z,1.63
2022-09-14T00:48:04.225Z,1.60
2022-09-14T00:50:52.976Z,1.43
2022-09-14T00:53:41.287Z,1.50
2022-09-14T00:56:29.700Z,1.30
2022-09-14T01:02:10.893Z,1.00
2022-09-14T01:07:49.222Z,1.50
2022-09-14T01:13:49.835Z,1.30
2022-09-14T01:19:33.897Z,1.33
2022-09-14T01:25:20.381Z,1.20
2022-09-14T01:31:08.015Z,1.30
2022-09-14T01:34:03.421Z,1.30
2022-09-14T01:39:40.860Z,1.40
2022-09-14T01:45:37.559Z,1.77
2022-09-14T01:51:21.156Z,1.80
2022-09-14T01:57:04.156Z,1.53
2022-09-14T02:02:55.293Z,1.50
2022-09-14T02:08:45.848Z,1.60
2022-09-14T02:11:34.441Z,1.90
2022-09-14T02:14:23.501Z,2.00
2022-09-14T02:20:00.164Z,1.90
2022-09-14T02:22:48.301Z,1.80
2022-09-14T02:25:39.506Z,1.90
2022-09-14T02:28:30.497Z,1.80
2022-09-14T02:34:11.791Z,1.90
2022-09-14T02:37:04.818Z,1.77
2022-09-14T02:42:41.182Z,2.10
2022-09-14T02:48:26.168Z,2.10
2022-09-14T02:54:03.165Z,1.73
2022-09-14T02:59:36.960Z,2.33
2022-09-14T03:05:08.772Z,1.87
2022-09-14T03:10:46.744Z,1.97
2022-09-14T03:13:36.819Z,1.67
2022-09-14T03:19:12.116Z,1.90
2022-09-14T03:22:00.740Z,1.93
2022-09-14T03:24:48.955Z,1.50
2022-09-14T03:30:18.068Z,1.97
2022-09-14T03:33:07.573Z,1.67
2022-09-14T03:35:55.886Z,1.70
2022-09-14T03:38:49.558Z,1.67
2022-09-14T03:41:39.203Z,1.87
2022-09-14T03:44:27.949Z,1.90
2022-09-14T03:47:17.368Z,1.53
2022-09-14T03:52:57.111Z,1.67
2022-09-14T03:58:34.205Z,1.90
2022-09-14T04:04:15.416Z,1.67
2022-09-14T04:09:55.340Z,1.70
2022-09-14T04:15:31.902Z,1.77
2022-09-14T04:18:20.622Z,1.80
2022-09-14T04:24:14.828Z,1.83
2022-09-14T04:29:38.293Z,2.10
2022-09-14T04:32:32.188Z,1.80
2022-09-14T04:38:09.175Z,1.90
2022-09-14T04:40:57.805Z,1.80
2022-09-14T04:46:36.879Z,2.00
2022-09-14T04:49:25.573Z,2.00
2022-09-14T04:52:13.815Z,2.10
2022-09-14T04:57:50.974Z,1.67
2022-09-14T05:03:26.730Z,1.90
2022-09-14T05:06:16.706Z,1.83
2022-09-14T05:11:51.969Z,1.87
2022-09-14T05:17:24.731Z,1.83
2022-09-14T05:20:13.986Z,1.80
2022-09-14T05:25:57.583Z,1.70
2022-09-14T05:31:34.689Z,1.93
2022-09-14T05:34:26.846Z,1.67
2022-09-14T05:37:15.773Z,2.00
2022-09-14T05:42:49.831Z,2.13
2022-09-14T05:48:23.277Z,1.70
2022-09-14T05:51:18.277Z,2.03
2022-09-14T05:54:09.630Z,1.87
2022-09-14T05:59:48.343Z,2.20
2022-09-14T06:02:37.894Z,2.20
2022-09-14T06:05:26.197Z,1.60
2022-09-14T06:11:05.748Z,1.83
2022-09-14T06:13:55.687Z,1.50
2022-09-14T06:19:32.792Z,1.70
2022-09-14T06:22:21.442Z,2.77
2022-09-14T06:31:04.876Z,2.07
2022-09-14T06:36:43.263Z,1.90
2022-09-14T06:42:15.655Z,1.43
2022-09-14T06:45:04.234Z,1.70
2022-09-14T06:50:33.173Z,2.20
2022-09-14T06:56:30.113Z,2.77
2022-09-14T06:59:20.184Z,1.87
2022-09-14T07:02:09.780Z,2.40
2022-09-14T07:07:46.700Z,2.23
2022-09-14T07:10:35.083Z,1.90
2022-09-14T07:16:11.443Z,1.83
2022-09-14T07:21:48.013Z,2.27
2022-09-14T07:27:24.243Z,1.60
2022-09-14T07:32:59.038Z,2.50
2022-09-14T07:38:51.747Z,1.97
2022-09-14T07:41:27.400Z,1.87
2022-09-14T07:47:02.573Z,2.30
2022-09-14T07:52:38.509Z,2.67
2022-09-14T07:58:08.944Z,3.27
2022-09-14T08:03:49.067Z,2.10
2022-09-14T08:27:41.310Z,2.20
2022-09-14T08:33:11.909Z,2.50
2022-09-14T08:38:47.465Z,2.10
2022-09-14T08:47:34.875Z,2.30
2022-09-14T08:53:16.193Z,2.37
2022-09-14T08:59:03.375Z,2.63
2022-09-14T09:04:47.887Z,2.67
2022-09-14T09:10:19.907Z,2.37
2022-09-14T09:13:11.728Z,2.50
2022-09-14T09:18:44.405Z,2.20
2022-09-14T09:24:18.517Z,1.93
2022-09-14T09:30:04.208Z,2.13
2022-09-14T09:35:37.802Z,2.33
2022-09-14T09:38:29.173Z,2.10
2022-09-14T09:41:20.762Z,1.93
2022-09-14T09:44:10.406Z,1.90
2022-09-14T09:47:00.989Z,2.10
2022-09-14T09:52:34.580Z,1.77
2022-09-14T09:58:28.632Z,1.80
2022-09-14T10:04:17.217Z,1.93
2022-09-14T10:09:51.935Z,1.60
2022-09-14T10:18:19.467Z,1.77
2022-09-14T10:21:10.060Z,1.80
2022-09-14T10:26:59.052Z,2.20
2022-09-14T10:29:49.574Z,2.00
2022-09-14T10:32:37.786Z,2.20
2022-09-14T10:35:29.535Z,2.40
2022-09-14T10:41:26.055Z,2.03
2022-09-14T10:44:50.121Z,1.93
2022-09-14T10:48:09.622Z,1.83
2022-09-14T10:53:52.390Z,2.40
2022-09-14T10:59:35.518Z,1.80
2022-09-14T11:02:51.767Z,2.00
2022-09-14T11:05:42.965Z,2.30
2022-09-14T11:11:29.418Z,3.20
2022-09-14T11:17:23.650Z,3.37
2022-09-14T11:23:12.734Z,1.80
2022-09-14T11:26:03.457Z,2.27
2022-09-14T11:31:40.049Z,1.97
2022-09-14T11:34:32.906Z,1.90
2022-09-14T11:40:17.665Z,1.90
2022-09-14T11:48:44.178Z,1.80
2022-09-14T11:51:31.632Z,1.90
2022-09-14T11:57:11.167Z,2.70
2022-09-14T12:03:03.707Z,2.00
2022-09-14T12:05:52.793Z,2.70
2022-09-14T12:08:42.401Z,2.00
2022-09-14T12:14:41.581Z,2.13
2022-09-14T12:20:50.619Z,2.73
2022-09-14T12:24:02.202Z,1.83
2022-09-14T12:26:51.354Z,2.20
2022-09-14T12:32:41.649Z,2.40
2022-09-14T12:35:47.557Z,2.03
2022-09-14T12:39:04.942Z,2.03
2022-09-14T12:42:27.869Z,1.90
2022-09-14T12:45:50.329Z,2.00
2022-09-14T12:51:49.868Z,1.80
2022-09-14T12:54:51.307Z,1.60
2022-09-14T13:00:27.886Z,1.83
2022-09-14T13:06:15.810Z,2.00
2022-09-14T13:11:57.784Z,1.83
2022-09-14T13:17:34.867Z,2.20
2022-09-14T13:20:25.616Z,1.50
2022-09-14T13:23:22.853Z,1.83
2022-09-14T13:29:04.515Z,1.70
2022-09-14T13:31:52.798Z,1.67
2022-09-14T13:37:28.511Z,1.90
2022-09-14T13:43:06.581Z,1.70
2022-09-14T13:48:39.910Z,1.57
2022-09-14T13:51:29.700Z,1.63
2022-09-14T13:57:17.985Z,1.50
2022-09-14T14:00:19.978Z,1.57
2022-09-14T14:03:08.076Z,1.57
2022-09-14T14:11:31.337Z,1.77
2022-09-14T14:17:26.978Z,1.60
2022-09-14T14:23:22.590Z,2.20
2022-09-14T14:26:13.282Z,1.97
2022-09-14T14:31:57.395Z,2.00
2022-09-14T14:34:45.630Z,1.80
2022-09-14T14:37:33.641Z,1.63
2022-09-14T14:43:10.795Z,1.70
2022-09-14T14:48:47.108Z,1.80
2022-09-14T14:54:27.181Z,1.87
2022-09-14T14:57:15.737Z,2.10
2022-09-14T15:00:06.590Z,2.23
2022-09-14T15:05:45.293Z,1.80
2022-09-14T15:11:18.860Z,2.00
2022-09-14T15:14:07.415Z,2.00
2022-09-14T15:19:41.344Z,2.00
2022-09-14T15:22:31.716Z,2.07
2022-09-14T15:28:06.243Z,1.73
2022-09-14T15:33:47.823Z,2.00
2022-09-14T15:36:41.459Z,1.80
2022-09-14T15:42:17.421Z,1.60
2022-09-14T15:47:53.122Z,1.77
2022-09-14T15:53:29.765Z,1.40
2022-09-14T15:59:05.537Z,1.10
2022-09-14T16:01:53.869Z,1.30
2022-09-14T16:07:30.810Z,1.10
2022-09-14T16:13:07.426Z,1.20
2022-09-14T16:16:07.535Z,1.20
2022-09-14T16:21:42.172Z,1.33
2022-09-14T16:27:10.517Z,1.00
2022-09-14T16:32:47.148Z,1.37
2022-09-14T16:38:38.633Z,1.20
2022-09-14T16:44:10.370Z,1.40
2022-09-14T16:49:46.018Z,1.47
2022-09-14T16:55:30.938Z,1.20
2022-09-14T17:01:10.921Z,1.37
2022-09-14T17:04:01.094Z,1.40
2022-09-14T17:06:51.368Z,1.47
2022-09-14T17:12:27.263Z,1.30
2022-09-14T17:15:15.620Z,1.70
2022-09-14T17:20:57.917Z,1.30
2022-09-14T17:23:46.777Z,1.57
2022-09-14T17:29:22.376Z,1.40
2022-09-14T17:34:57.925Z,1.93
2022-09-14T17:40:24.959Z,1.50
2022-09-14T17:46:18.976Z,1.60
2022-09-14T17:49:08.900Z,1.90
2022-09-14T17:54:44.614Z,1.30
2022-09-14T17:57:34.334Z,1.43
2022-09-14T18:00:22.649Z,1.80
2022-09-14T18:03:10.936Z,1.50
2022-09-14T18:08:43.797Z,2.00
2022-09-14T18:17:02.611Z,2.30
2022-09-14T18:22:41.332Z,2.50
2022-09-14T18:28:15.492Z,2.13
2022-09-14T18:33:50.954Z,2.37
2022-09-14T18:36:39.223Z,1.93
2022-09-14T18:45:06.428Z,2.50
2022-09-14T18:50:45.498Z,2.73
2022-09-14T18:53:34.384Z,3.20
2022-09-14T18:59:23.172Z,2.70
2022-09-14T19:05:06.758Z,2.80
2022-09-14T19:10:40.681Z,2.20
2022-09-14T19:19:04.882Z,1.60
2022-09-14T19:24:33.202Z,2.30
2022-09-14T19:27:23.282Z,2.23
2022-09-14T19:30:13.849Z,1.80
2022-09-14T19:33:01.848Z,2.23
2022-09-14T19:38:39.046Z,1.90
2022-09-14T19:44:13.035Z,2.40
2022-09-14T19:49:49.634Z,2.50
2022-09-14T19:55:28.314Z,2.70
2022-09-14T20:01:02.162Z,3.00
2022-09-14T20:03:51.199Z,2.67
2022-09-14T20:09:22.382Z,2.50
2022-09-14T20:15:03.007Z,1.90
2022-09-14T20:20:37.431Z,1.70
2022-09-14T20:23:25.924Z,1.73
2022-09-14T20:26:16.319Z,1.67
2022-09-14T20:29:04.875Z,1.77
2022-09-14T20:34:34.359Z,1.50
2022-09-14T20:37:23.636Z,1.33
2022-09-14T20:45:44.427Z,1.47
2022-09-14T20:48:33.341Z,1.60
2022-09-14T20:51:23.086Z,1.23
2022-09-14T20:57:04.869Z,1.57
2022-09-14T21:02:41.075Z,1.53
2022-09-14T21:08:15.828Z,1.50
2022-09-14T21:13:52.321Z,1.53
2022-09-14T21:19:27.159Z,1.30
2022-09-14T21:22:15.706Z,1.30
2022-09-14T21:25:03.878Z,1.77
2022-09-14T21:30:38.784Z,1.50
2022-09-14T21:33:31.502Z,1.40
2022-09-14T21:36:21.348Z,1.47
2022-09-14T21:41:59.886Z,1.53
2022-09-14T21:44:50.188Z,1.40
2022-09-14T21:50:22.354Z,1.53
2022-09-14T21:55:52.444Z,1.57
2022-09-14T22:01:31.077Z,1.27
2022-09-14T22:04:21.099Z,1.03
2022-09-14T22:09:57.122Z,1.23
2022-09-14T22:15:37.772Z,1.30
2022-09-14T22:18:26.343Z,1.30
2022-09-14T22:21:14.977Z,1.50
2022-09-14T22:26:50.184Z,1.37
2022-09-14T22:29:40.484Z,1.57
2022-09-14T22:35:16.921Z,1.27
2022-09-14T22:38:07.218Z,1.30
2022-09-14T22:43:46.905Z,1.13
2022-09-14T22:49:23.992Z,1.17
2022-09-14T22:52:12.897Z,0.93
2022-09-14T22:57:50.375Z,1.43
2022-09-14T23:00:39.699Z,1.10
2022-09-14T23:06:08.251Z,1.50
2022-09-14T23:09:00.533Z,1.10
2022-09-14T23:11:48.522Z,1.30
2022-09-14T23:14:38.039Z,1.47
2022-09-14T23:17:26.940Z,1.30
2022-09-14T23:23:00.502Z,1.10
2022-09-14T23:25:48.886Z,1.30
2022-09-14T23:31:24.717Z,1.30
2022-09-14T23:37:02.150Z,1.27
2022-09-14T23:42:38.778Z,1.33
2022-09-14T23:48:16.152Z,1.27
2022-09-14T23:53:49.244Z,1.03
2022-09-14T23:59:19.952Z,0.87
